Time;durP1;ratioP1;P1;durP2;ratioP2;P2;SDS_P1;SDS_P2;PMS_P1;PMS_P2;Temp;Humidity;BMP_temperature;BMP_pressure;BME280_temperature;BME280_humidity;BME280_pressure;Samples;Min_cycle;Max_cycle;Signal;HPM_P1;HPM_P2
2021/03/06 00:02:21;;;;;;;17.35;11.57;;;;;;;10.88;36.47;93905.31;4896663;28;20027;-83
2021/03/06 00:04:46;;;;;;;21.25;11.50;;;;;;;10.81;36.76;93903.00;4908993;28;20492;-82
2021/03/06 00:07:16;;;;;;;19.58;12.68;;;;;;;10.99;36.69;93932.38;4934150;28;20046;-83
2021/03/06 00:09:41;;;;;;;15.07;10.82;;;;;;;10.80;36.30;93890.84;4955392;28;20129;-83
2021/03/06 00:12:07;;;;;;;18.75;11.65;;;;;;;11.00;36.67;93928.63;4951607;28;20062;-83
2021/03/06 00:14:33;;;;;;;17.77;11.75;;;;;;;10.86;36.52;93902.94;4966302;28;20077;-82
2021/03/06 00:17:00;;;;;;;18.10;11.38;;;;;;;11.10;36.27;93928.50;4950769;28;20022;-83
2021/03/06 00:20:00;;;;;;;20.05;10.95;;;;;;;10.63;36.69;93860.72;4943912;28;20046;-83
2021/03/06 00:22:25;;;;;;;24.00;12.00;;;;;;;11.04;36.92;93942.88;4898630;28;20133;-83
2021/03/06 00:24:51;;;;;;;16.85;11.07;;;;;;;10.89;36.79;93925.38;4943407;28;20367;-83
2021/03/06 00:27:16;;;;;;;22.25;12.60;;;;;;;11.05;36.69;93942.56;4940419;28;20046;-83
2021/03/06 00:29:42;;;;;;;27.23;13.63;;;;;;;10.86;36.72;93918.78;4913361;28;20110;-83
2021/03/06 00:32:17;;;;;;;22.58;13.55;;;;;;;10.71;36.85;93889.16;4941059;28;20023;-83
2021/03/06 00:34:43;;;;;;;20.67;11.95;;;;;;;10.67;37.10;93882.88;4953583;28;20031;-83
2021/03/06 00:37:12;;;;;;;16.45;11.43;;;;;;;10.65;37.14;93875.22;4948887;28;20401;-82
2021/03/06 00:39:37;;;;;;;26.45;11.57;;;;;;;10.81;37.76;93915.44;4954870;28;20035;-83
2021/03/06 00:42:03;;;;;;;21.27;12.48;;;;;;;10.45;37.93;93870.25;4938209;28;20061;-83
2021/03/06 00:44:32;;;;;;;18.40;12.75;;;;;;;10.46;38.27;93866.50;4929542;28;20042;-83
2021/03/06 00:47:17;;;;;;;22.35;11.95;;;;;;;10.77;38.71;93896.72;4952787;28;20030;-83
2021/03/06 00:49:43;;;;;;;18.48;12.18;;;;;;;10.65;39.13;93882.38;4945100;28;20564;-82
2021/03/06 00:52:09;;;;;;;18.38;13.05;;;;;;;10.52;39.24;93878.59;4945435;28;20178;-82
2021/03/06 00:54:35;;;;;;;19.38;13.70;;;;;;;10.70;39.89;93896.28;4944880;28;20090;-83
2021/03/06 00:57:00;;;;;;;18.88;13.07;;;;;;;10.67;40.07;93894.22;4915123;28;20868;-83
2021/03/06 00:59:26;;;;;;;20.65;13.75;;;;;;;10.48;41.07;93874.94;4957483;28;21712;-82
2021/03/06 01:01:57;;;;;;;18.85;13.45;;;;;;;10.42;41.07;93862.88;4954945;28;20556;-82
2021/03/06 01:04:45;;;;;;;22.25;14.38;;;;;;;10.64;40.93;93884.25;4928430;28;20113;-82
2021/03/06 01:07:15;;;;;;;20.75;14.48;;;;;;;10.85;41.22;93930.44;4953720;28;20092;-83
2021/03/06 01:09:41;;;;;;;21.85;14.27;;;;;;;10.61;41.22;93889.28;4925316;28;20153;-83
2021/03/06 01:12:07;;;;;;;24.65;14.40;;;;;;;10.55;41.48;93896.53;4962082;28;20388;-82
2021/03/06 01:14:32;;;;;;;24.63;15.07;;;;;;;10.55;41.57;93890.47;4956745;28;20047;-82
2021/03/06 01:17:18;;;;;;;22.50;13.93;;;;;;;10.70;41.83;93922.72;4946753;28;20509;-82
2021/03/06 01:19:43;;;;;;;;;;;;;;;10.66;41.88;93924.38;4948448;28;20046;-83
2021/03/06 01:22:12;;;;;;;23.05;14.20;;;;;;;10.61;42.01;93916.50;4937217;28;19918;-82
2021/03/06 01:24:38;;;;;;;25.05;15.13;;;;;;;10.20;41.52;93849.44;4916560;28;20595;-82
2021/03/06 01:27:03;;;;;;;23.67;14.55;;;;;;;10.24;41.74;93855.72;4950020;28;20042;-82
2021/03/06 01:29:29;;;;;;;18.38;14.15;;;;;;;10.49;41.85;93886.31;4959887;28;20026;-82
2021/03/06 01:31:54;;;;;;;23.35;14.35;;;;;;;10.13;41.64;93830.50;4954294;28;20678;-83
2021/03/06 01:34:23;;;;;;;20.70;13.98;;;;;;;10.44;41.56;93876.59;4966281;28;20085;-83
2021/03/06 01:36:53;;;;;;;24.10;14.15;;;;;;;10.32;41.21;93863.00;4939150;28;21059;-82
2021/03/06 01:39:22;;;;;;;21.55;14.32;;;;;;;10.27;41.59;93878.91;4935889;28;20042;-83
2021/03/06 01:42:12;;;;;;;21.95;15.23;;;;;;;10.30;41.64;93883.66;4933374;28;20645;-82
2021/03/06 01:44:40;;;;;;;24.38;14.68;;;;;;;10.24;41.43;93859.16;4915974;28;20055;-83
2021/03/06 01:47:09;;;;;;;26.40;14.27;;;;;;;10.26;41.72;93875.50;4916071;28;20470;-82
2021/03/06 01:49:35;;;;;;;20.23;13.57;;;;;;;10.50;41.77;93920.38;4915403;29;20139;-83
2021/03/06 01:52:03;;;;;;;27.80;14.27;;;;;;;10.11;41.71;93878.31;4932256;28;20043;-82
2021/03/06 01:54:29;;;;;;;20.13;14.18;;;;;;;10.18;41.94;93877.97;4934293;28;20035;-83
2021/03/06 01:56:54;;;;;;;25.77;14.15;;;;;;;10.47;41.95;93931.50;4945886;28;20360;-82
2021/03/06 01:59:20;;;;;;;23.42;13.95;;;;;;;10.08;42.29;93880.72;4940691;28;20039;-82
2021/03/06 02:01:47;;;;;;;24.10;15.93;;;;;;;10.04;42.04;93866.53;4936214;28;20426;-82
2021/03/06 02:04:13;;;;;;;22.50;14.35;;;;;;;9.92;42.03;93856.38;4928536;28;20039;-83
2021/03/06 02:06:42;;;;;;;26.00;13.80;;;;;;;10.42;42.20;93934.19;4928358;28;20127;-82
2021/03/06 02:09:10;;;;;;;19.15;14.07;;;;;;;10.09;42.12;93877.00;4934216;28;20098;-82
2021/03/06 02:12:04;;;;;;;23.02;14.95;;;;;;;10.38;42.19;93922.63;4939333;28;20509;-82
2021/03/06 02:15:08;;;;;;;25.05;15.35;;;;;;;10.36;42.25;93924.78;4935518;28;20062;-83
2021/03/06 02:17:51;;;;;;;19.88;13.43;;;;;;;10.29;42.64;93919.06;4908095;28;20048;-82
2021/03/06 02:20:47;;;;;;;22.10;16.13;;;;;;;10.30;43.85;93928.56;4882705;29;20053;-83
2021/03/06 02:23:37;;;;;;;21.48;13.88;;;;;;;10.27;43.36;93929.09;4899714;28;20097;-83
2021/03/06 02:26:28;;;;;;;22.50;14.75;;;;;;;10.18;43.46;93930.81;4936514;28;20028;-83
2021/03/06 02:29:08;;;;;;;20.35;13.90;;;;;;;10.05;44.35;93913.78;4941242;29;20023;-82
2021/03/06 02:31:51;;;;;;;20.77;15.15;;;;;;;9.85;44.52;93883.09;4927606;28;20290;-82
2021/03/06 02:34:25;;;;;;;22.90;14.45;;;;;;;9.67;45.04;93854.81;4936034;29;20391;-82
2021/03/06 02:37:07;;;;;;;21.50;15.35;;;;;;;10.10;45.62;93929.56;4945420;28;20105;-82
2021/03/06 02:39:35;;;;;;;22.75;14.23;;;;;;;9.68;46.28;93882.75;4950889;28;20086;-83
2021/03/06 02:42:04;;;;;;;24.30;14.98;;;;;;;9.78;46.35;93902.97;4890737;28;20054;-83
2021/03/06 02:44:31;;;;;;;22.85;15.52;;;;;;;9.93;46.95;93937.13;4923000;28;20466;-83
2021/03/06 02:46:58;;;;;;;24.60;15.90;;;;;;;9.80;47.11;93914.84;4940390;28;20492;-83
2021/03/06 02:49:24;;;;;;;22.30;15.55;;;;;;;9.57;47.17;93870.75;4956717;28;20035;-83
2021/03/06 02:51:49;;;;;;;22.42;14.35;;;;;;;9.87;47.34;93933.00;4958172;28;20035;-83
2021/03/06 02:54:15;;;;;;;26.92;15.60;;;;;;;9.87;47.34;93943.53;4955094;28;20295;-82
2021/03/06 02:56:40;;;;;;;27.88;15.60;;;;;;;9.66;47.54;93915.78;4957989;28;20051;-82
2021/03/06 02:59:23;;;;;;;25.98;14.88;;;;;;;9.70;47.42;93920.22;4955297;28;20027;-82
2021/03/06 03:01:57;;;;;;;25.58;14.20;;;;;;;9.80;47.81;93946.50;4955706;28;20034;-83
2021/03/06 03:04:35;;;;;;;20.50;15.85;;;;;;;9.70;48.15;93959.00;4965388;28;20053;-82
2021/03/06 03:07:08;;;;;;;22.15;14.75;;;;;;;9.19;48.32;93884.84;4937824;28;20042;-83
2021/03/06 03:09:56;;;;;;;22.60;14.80;;;;;;;9.34;48.17;93908.41;4918356;28;20440;-82
2021/03/06 03:12:29;;;;;;;18.23;13.68;;;;;;;9.59;48.46;93953.03;4931635;28;20030;-82
2021/03/06 03:14:55;;;;;;;23.85;15.77;;;;;;;9.58;48.15;93962.00;4941672;28;20043;-82
2021/03/06 03:17:26;;;;;;;22.30;16.08;;;;;;;9.51;48.83;93972.13;4936206;28;20126;-83
2021/03/06 03:20:03;;;;;;;25.65;15.07;;;;;;;9.49;48.81;93974.22;4931285;28;20071;-83
2021/03/06 03:22:37;;;;;;;20.52;15.25;;;;;;;9.13;49.08;93932.34;4953765;28;20049;-83
2021/03/06 03:25:08;;;;;;;24.40;16.38;;;;;;;9.47;49.06;93979.00;4946228;28;20137;-83
2021/03/06 03:27:40;;;;;;;21.80;15.38;;;;;;;9.12;49.43;93938.66;4965133;28;20046;-83
2021/03/06 03:30:12;;;;;;;25.63;15.25;;;;;;;9.34;49.69;93983.06;4945127;28;20141;-83
2021/03/06 03:32:53;;;;;;;24.95;15.48;;;;;;;9.30;49.38;93960.16;4945147;28;20042;-83
2021/03/06 03:35:24;;;;;;;24.45;16.23;;;;;;;8.90;49.49;93926.97;4955011;28;20839;-82
2021/03/06 03:38:03;;;;;;;28.95;16.40;;;;;;;8.81;49.64;93921.50;4938375;28;20656;-83
2021/03/06 03:40:41;;;;;;;23.15;15.80;;;;;;;8.77;49.69;93925.75;4952212;28;20047;-82
2021/03/06 03:43:07;;;;;;;21.73;15.45;;;;;;;9.23;49.55;93999.25;4954782;28;21262;-83
2021/03/06 03:45:33;;;;;;;26.08;15.93;;;;;;;9.00;49.42;93961.16;4942111;28;20050;-83
2021/03/06 03:48:00;;;;;;;28.65;17.20;;;;;;;9.25;49.79;94002.38;4944600;28;20031;-83
2021/03/06 03:50:26;;;;;;;25.23;16.50;;;;;;;8.78;49.85;93942.34;4900724;28;20128;-83
2021/03/06 03:52:52;;;;;;;20.55;15.13;;;;;;;9.11;50.17;93997.72;4942988;28;20465;-83
2021/03/06 03:55:32;;;;;;;27.40;16.23;;;;;;;9.13;50.33;94011.44;4949972;28;20581;-83
2021/03/06 03:57:58;;;;;;;26.25;17.15;;;;;;;9.03;50.52;93976.44;4945222;28;20069;-83
2021/03/06 04:00:36;;;;;;;24.30;18.02;;;;;;;8.86;51.07;93968.88;4927606;28;20142;-83
2021/03/06 04:03:06;;;;;;;26.70;16.90;;;;;;;8.78;51.60;93956.31;4929615;28;20543;-83
2021/03/06 04:05:45;;;;;;;;;;;;;;;;;;;;;
2021/03/06 04:08:10;;;;;;;30.65;20.77;;;;;;;8.97;51.56;93982.81;4951537;28;20035;-83
2021/03/06 04:10:36;;;;;;;27.40;18.70;;;;;;;9.01;51.58;93981.19;4956725;28;20293;-83
2021/03/06 04:13:01;;;;;;;25.13;17.17;;;;;;;9.07;51.70;93988.00;4952361;28;20161;-82
2021/03/06 04:15:33;;;;;;;22.83;16.55;;;;;;;9.33;51.35;94038.72;4943721;28;20189;-83
2021/03/06 04:17:58;;;;;;;40.15;24.42;;;;;;;9.42;51.66;94037.06;4949241;28;20042;-82
2021/03/06 04:20:24;;;;;;;30.42;18.20;;;;;;;9.00;50.96;93964.59;4949375;28;20419;-83
2021/03/06 04:22:53;;;;;;;22.58;16.45;;;;;;;9.34;51.15;93998.09;4954370;28;20701;-83
2021/03/06 04:25:25;;;;;;;32.17;21.30;;;;;;;9.22;51.20;93984.47;4883584;28;20045;-83
2021/03/06 04:27:51;;;;;;;42.70;25.58;;;;;;;9.41;50.75;94003.84;4951447;28;20035;-83
2021/03/06 04:30:18;;;;;;;29.77;19.40;;;;;;;9.32;50.94;93971.22;4898473;28;20078;-83
2021/03/06 04:32:49;;;;;;;30.00;19.40;;;;;;;9.43;50.68;93981.38;4948185;28;20047;-84
2021/03/06 04:35:14;;;;;;;22.27;17.52;;;;;;;9.23;50.97;93954.41;4965112;28;20035;-82
2021/03/06 04:37:41;;;;;;;28.92;17.35;;;;;;;9.49;50.81;94000.59;4951055;28;20023;-83
2021/03/06 04:40:12;;;;;;;23.15;15.95;;;;;;;9.37;50.60;93961.41;4954154;28;20098;-83
2021/03/06 04:42:39;;;;;;;24.48;16.88;;;;;;;9.74;50.41;94015.44;4883868;28;20051;-83
2021/03/06 04:45:06;;;;;;;25.60;17.02;;;;;;;9.83;50.61;94048.88;4947164;28;20704;-82
2021/03/06 04:47:32;;;;;;;29.50;17.58;;;;;;;9.81;50.87;94047.59;4954809;28;20078;-82
2021/03/06 04:49:57;;;;;;;25.60;17.98;;;;;;;9.80;50.46;94038.88;4947316;28;20469;-83
2021/03/06 04:52:27;;;;;;;26.30;17.92;;;;;;;9.81;50.30;94037.81;4937656;28;23258;-83
2021/03/06 04:54:57;;;;;;;29.73;17.85;;;;;;;9.71;50.49;94027.34;4878058;29;20050;-83
2021/03/06 04:57:25;;;;;;;28.60;17.58;;;;;;;9.85;50.40;94045.97;4953289;28;20050;-82
2021/03/06 05:00:05;;;;;;;27.38;17.67;;;;;;;9.90;50.37;94061.75;4943106;28;20408;-83
2021/03/06 05:02:32;;;;;;;30.90;18.30;;;;;;;9.93;50.23;94054.06;4937257;28;20166;-82
2021/03/06 05:04:58;;;;;;;29.08;18.98;;;;;;;9.93;50.30;94061.19;4926926;28;20012;-83
2021/03/06 05:07:24;;;;;;;27.25;17.90;;;;;;;9.90;50.51;94065.19;4948280;28;20594;-83
2021/03/06 05:09:50;;;;;;;25.85;17.08;;;;;;;9.63;50.68;94038.47;4922633;28;20161;-83
2021/03/06 05:12:33;;;;;;;25.58;19.30;;;;;;;9.66;50.67;94035.31;4892420;28;20129;-83
2021/03/06 05:14:59;;;;;;;33.30;19.92;;;;;;;9.76;51.00;94068.75;4886609;28;20047;-83
2021/03/06 05:17:25;;;;;;;27.75;19.10;;;;;;;9.99;51.12;94107.63;4920162;28;20595;-82
2021/03/06 05:19:56;;;;;;;25.83;18.50;;;;;;;9.77;51.46;94092.22;4932590;28;20022;-82
2021/03/06 05:22:36;;;;;;;31.75;20.60;;;;;;;9.98;51.53;94125.31;4952826;28;20070;-82
2021/03/06 05:25:05;;;;;;;33.83;22.90;;;;;;;9.48;51.54;94047.28;4895381;28;20214;-83
2021/03/06 05:27:33;;;;;;;39.08;21.70;;;;;;;9.80;52.18;94112.00;4951140;28;20047;-81
2021/03/06 05:29:59;;;;;;;36.55;24.20;;;;;;;9.41;52.58;94067.16;4951595;28;20053;-83
2021/03/06 05:32:25;;;;;;;34.83;22.85;;;;;;;9.43;53.31;94083.50;4941839;28;20114;-84
2021/03/06 05:35:01;;;;;;;32.30;22.67;;;;;;;9.26;53.80;94091.75;4952906;28;20026;-86
2021/03/06 05:37:27;;;;;;;36.35;25.40;;;;;;;9.04;55.29;94089.50;4942562;28;20598;-84
2021/03/06 05:39:57;;;;;;;37.92;28.20;;;;;;;9.20;56.14;94121.84;4878656;28;20047;-84
2021/03/06 05:42:23;;;;;;;37.75;27.35;;;;;;;9.00;57.13;94103.50;4960846;28;20110;-82
2021/03/06 05:44:52;;;;;;;51.15;29.05;;;;;;;8.87;58.07;94110.16;4943069;28;20631;-82
2021/03/06 05:47:21;;;;;;;45.08;30.98;;;;;;;8.83;58.87;94114.38;4899246;28;20138;-82
2021/03/06 05:49:49;;;;;;;47.03;30.60;;;;;;;8.93;59.17;94124.09;4918636;28;20061;-82
2021/03/06 05:52:18;;;;;;;38.55;28.55;;;;;;;8.79;59.08;94112.56;4974315;28;20069;-83
2021/03/06 05:54:50;;;;;;;41.83;29.55;;;;;;;8.97;59.50;94154.13;4969389;28;20047;-83
2021/03/06 05:57:24;;;;;;;45.13;30.83;;;;;;;8.99;59.83;94181.78;4948453;28;20070;-83
2021/03/06 06:00:00;;;;;;;45.47;30.55;;;;;;;9.09;60.36;94202.84;4967469;28;20061;-83
2021/03/06 06:02:35;;;;;;;45.22;31.33;;;;;;;8.94;60.56;94170.50;4958627;28;20034;-82
2021/03/06 06:05:20;;;;;;;49.63;31.63;;;;;;;9.07;61.60;94220.78;4963067;28;20035;-83
2021/03/06 06:08:05;;;;;;;44.97;29.45;;;;;;;8.72;64.13;94228.78;4973004;28;20769;-84
2021/03/06 06:10:36;;;;;;;45.45;29.23;;;;;;;8.35;65.03;94165.88;4970354;28;20158;-83
2021/03/06 06:13:11;;;;;;;40.67;29.08;;;;;;;8.43;66.13;94198.78;4925825;28;20090;-83
2021/03/06 06:15:45;;;;;;;48.33;29.38;;;;;;;8.15;66.31;94171.91;4918223;28;20054;-83
2021/03/06 06:18:13;;;;;;;38.67;26.65;;;;;;;8.15;66.11;94182.44;4972034;28;20125;-83
2021/03/06 06:20:41;;;;;;;37.92;25.40;;;;;;;8.07;66.64;94188.22;4936008;28;20531;-82
2021/03/06 06:23:19;;;;;;;38.45;27.15;;;;;;;8.21;66.75;94241.91;4961450;28;20038;-82
2021/03/06 06:25:57;;;;;;;31.73;23.10;;;;;;;7.82;66.79;94198.72;4974393;28;20485;-83
2021/03/06 06:28:23;;;;;;;34.03;23.05;;;;;;;8.21;66.89;94281.41;4974776;28;20041;-83
2021/03/06 06:31:09;;;;;;;25.30;18.35;;;;;;;8.23;65.63;94284.59;4975282;28;20038;-83
2021/03/06 06:33:34;;;;;;;20.73;16.85;;;;;;;8.15;65.22;94297.47;4968403;28;20101;-82
2021/03/06 06:36:00;;;;;;;18.95;15.07;;;;;;;7.83;64.47;94284.50;4971167;28;20532;-83
2021/03/06 06:38:25;;;;;;;18.88;15.18;;;;;;;8.00;64.99;94323.78;4956080;28;20170;-83
2021/03/06 06:40:55;;;;;;;18.38;14.63;;;;;;;7.60;65.24;94292.84;4957204;28;20026;-82
2021/03/06 06:43:34;;;;;;;19.05;14.90;;;;;;;7.58;65.12;94319.41;4912064;28;20062;-86
2021/03/06 06:46:05;;;;;;;17.88;13.32;;;;;;;7.39;65.68;94294.59;4966090;28;20051;-82
2021/03/06 06:48:31;;;;;;;18.63;13.85;;;;;;;7.79;65.98;94367.63;4959963;28;20133;-83
2021/03/06 06:51:08;;;;;;;15.38;11.93;;;;;;;7.69;65.30;94363.13;4971082;28;20126;-87
2021/03/06 06:53:34;;;;;;;14.50;11.98;;;;;;;7.57;64.39;94364.41;4947804;28;20576;-83
2021/03/06 06:55:59;;;;;;;16.33;12.00;;;;;;;7.36;66.09;94364.28;4954799;28;20126;-83
2021/03/06 06:58:45;;;;;;;16.15;12.68;;;;;;;7.27;65.78;94350.03;4955859;28;20026;-82
2021/03/06 07:01:40;;;;;;;;;;;;;;;;;;;;;
2021/03/06 07:04:11;;;;;;;14.80;11.38;;;;;;;7.15;66.40;94343.38;4937716;28;20039;-81
2021/03/06 07:06:37;;;;;;;15.70;12.88;;;;;;;7.32;67.43;94355.31;4954568;28;20461;-82
2021/03/06 07:09:16;;;;;;;16.02;12.27;;;;;;;7.54;67.01;94381.47;4962336;28;20108;-82
2021/03/06 07:11:44;;;;;;;15.30;12.05;;;;;;;7.11;66.12;94323.91;4935063;28;20077;-84
2021/03/06 07:14:13;;;;;;;15.35;12.07;;;;;;;7.11;66.04;94334.41;4960950;28;20051;-83
2021/03/06 07:17:03;;;;;;;13.25;10.75;;;;;;;7.27;65.51;94383.41;4957806;28;20022;-81
2021/03/06 07:19:34;;;;;;;13.50;10.45;;;;;;;6.94;64.93;94350.31;4948731;28;20181;-82
2021/03/06 07:22:12;;;;;;;10.07;8.05;;;;;;;6.75;64.89;94326.28;4942584;28;20042;-81
2021/03/06 07:24:41;;;;;;;9.80;7.97;;;;;;;6.74;64.30;94324.72;4935789;28;20744;-87
2021/03/06 07:27:07;;;;;;;10.82;8.07;;;;;;;7.14;64.90;94408.28;4954359;28;20043;-84
2021/03/06 07:29:33;;;;;;;12.73;7.70;;;;;;;6.98;63.13;94396.09;4942619;28;20042;-84
2021/03/06 07:32:14;;;;;;;7.53;6.72;;;;;;;6.88;63.34;94393.38;4926022;28;20469;-82
2021/03/06 07:35:09;;;;;;;7.88;6.20;;;;;;;6.62;63.98;94373.97;4953363;28;20047;-82
2021/03/06 07:37:37;;;;;;;9.10;6.28;;;;;;;6.39;65.61;94376.91;4936441;28;20069;-83
2021/03/06 07:40:38;;;;;;;17.85;5.90;;;;;;;6.77;65.38;94441.59;4938494;28;20342;-82
2021/03/06 07:43:13;;;;;;;9.25;5.93;;;;;;;6.74;66.21;94436.88;4951137;28;20141;-81
2021/03/06 07:45:42;;;;;;;7.47;5.70;;;;;;;6.68;66.03;94414.22;4953378;28;20604;-82
2021/03/06 07:48:17;;;;;;;7.03;5.90;;;;;;;6.61;66.99;94439.88;4928206;28;20384;-82
2021/03/06 07:50:48;;;;;;;9.02;6.57;;;;;;;6.47;67.52;94418.47;4956060;28;20662;-81
2021/03/06 07:53:18;;;;;;;14.45;6.35;;;;;;;6.38;68.15;94404.22;4922776;28;20769;-84
2021/03/06 07:55:45;;;;;;;10.38;8.23;;;;;;;6.35;68.07;94384.47;4910618;28;20046;-81
2021/03/06 07:58:18;;;;;;;10.43;6.57;;;;;;;6.69;67.65;94435.00;4968177;28;20635;-81
2021/03/06 08:00:54;;;;;;;8.32;5.78;;;;;;;6.78;67.29;94441.38;4963037;28;20069;-81
2021/03/06 08:06:00;;;;;;;5.60;4.43;;;;;;;6.58;67.97;94448.25;4923451;28;20657;-81
2021/03/06 08:08:32;;;;;;;6.03;4.53;;;;;;;6.94;66.63;94468.56;4944774;28;20061;-81
2021/03/06 08:11:33;;;;;;;4.85;4.15;;;;;;;7.23;63.66;94451.44;4960641;28;20047;-83
2021/03/06 08:14:01;;;;;;;4.72;3.72;;;;;;;7.39;63.26;94424.22;4938611;28;20070;-83
2021/03/06 08:16:27;;;;;;;4.78;3.63;;;;;;;8.08;61.88;94463.56;4945548;28;20078;-83
2021/03/06 08:19:08;;;;;;;5.53;3.85;;;;;;;8.35;59.76;94473.19;4957099;28;20133;-82
2021/03/06 08:21:37;;;;;;;5.50;4.18;;;;;;;8.58;59.96;94478.00;4952512;28;20251;-83
2021/03/06 08:24:12;;;;;;;6.57;4.50;;;;;;;8.81;59.80;94482.81;4959914;28;20049;-83
2021/03/06 08:26:42;;;;;;;10.23;8.33;;;;;;;8.28;60.71;94411.00;4924094;28;20509;-84
2021/03/06 08:29:22;;;;;;;8.75;5.60;;;;;;;8.63;58.12;94470.91;4924425;28;20290;-85
2021/03/06 08:31:57;;;;;;;4.45;3.95;;;;;;;8.65;58.14;94486.44;4953537;28;20034;-83
2021/03/06 08:34:43;;;;;;;10.65;5.07;;;;;;;8.05;59.17;94414.06;4846870;28;20485;-83
2021/03/06 08:37:24;;;;;;;4.53;3.90;;;;;;;8.45;58.15;94504.84;4941036;28;20058;-85
2021/03/06 08:40:27;;;;;;;10.63;7.47;;;;;;;8.05;56.99;94429.06;4915435;28;20066;-83
2021/03/06 08:42:54;;;;;;;25.60;16.77;;;;;;;7.93;58.07;94484.53;4877901;29;20132;-82
2021/03/06 08:45:28;;;;;;;47.53;26.95;;;;;;;7.60;60.24;94443.56;4948206;28;20042;-83
2021/03/06 08:47:57;;;;;;;24.38;13.70;;;;;;;7.81;58.81;94502.38;4971385;28;20043;-83
2021/03/06 08:50:24;;;;;;;11.48;8.30;;;;;;;7.86;59.05;94509.50;4969495;28;20052;-84
2021/03/06 08:53:13;;;;;;;10.80;8.80;;;;;;;7.25;58.79;94467.78;4969337;28;20022;-83
2021/03/06 08:55:41;;;;;;;7.00;5.63;;;;;;;7.29;59.63;94503.03;4971832;28;20133;-82
2021/03/06 08:58:11;;;;;;;6.53;5.90;;;;;;;6.91;61.07;94461.19;4968638;28;20485;-84
2021/03/06 09:00:44;;;;;;;5.63;4.28;;;;;;;7.20;60.84;94522.94;4964371;28;20129;-86
2021/03/06 09:03:15;;;;;;;4.32;3.85;;;;;;;6.70;59.52;94490.91;4940472;28;20051;-83
2021/03/06 09:05:52;;;;;;;4.90;4.05;;;;;;;7.00;59.74;94530.63;4969450;28;20045;-84
2021/03/06 09:08:21;;;;;;;6.68;5.25;;;;;;;6.75;60.44;94498.84;4944680;28;20049;-83
2021/03/06 09:10:50;;;;;;;5.07;4.57;;;;;;;6.32;60.48;94473.44;4973974;28;20080;-83
2021/03/06 09:13:21;;;;;;;7.13;5.35;;;;;;;6.85;61.10;94541.78;4969500;28;20050;-83
2021/03/06 09:15:49;;;;;;;4.28;3.65;;;;;;;6.61;60.05;94531.78;4961627;28;20058;-85
2021/03/06 09:18:25;;;;;;;6.88;4.82;;;;;;;6.55;60.88;94540.66;4968963;28;20061;-83
2021/03/06 09:20:54;;;;;;;4.10;3.70;;;;;;;6.20;61.31;94489.31;4963639;28;20125;-83
2021/03/06 09:23:46;;;;;;;4.40;3.85;;;;;;;6.44;60.39;94566.00;4938580;28;20052;-83
2021/03/06 09:26:19;;;;;;;11.25;4.30;;;;;;;6.32;61.69;94552.19;4936613;28;20066;-83
2021/03/06 09:28:47;;;;;;;5.97;5.05;;;;;;;6.10;61.24;94515.44;4964820;28;20050;-84
2021/03/06 09:31:29;;;;;;;5.25;4.03;;;;;;;5.74;61.61;94481.84;4949952;28;20044;-85
2021/03/06 09:34:02;;;;;;;21.63;14.15;;;;;;;6.01;61.43;94535.28;4965917;28;20084;-85
2021/03/06 09:36:38;;;;;;;21.50;12.65;;;;;;;5.68;61.73;94484.41;4963760;28;20046;-84
2021/03/06 09:39:05;;;;;;;9.70;8.45;;;;;;;5.95;61.09;94544.09;4957751;28;20042;-84
2021/03/06 09:41:38;;;;;;;4.97;4.40;;;;;;;6.04;60.04;94550.53;4949842;28;20081;-84
2021/03/06 09:44:05;;;;;;;7.97;5.00;;;;;;;5.78;60.68;94541.47;4942072;28;20051;-83
2021/03/06 09:46:33;;;;;;;6.88;6.07;;;;;;;6.00;61.17;94559.91;4940219;28;20146;-87
2021/03/06 09:49:02;;;;;;;5.93;4.78;;;;;;;5.73;61.63;94528.28;4932435;28;20098;-83
2021/03/06 09:51:46;;;;;;;5.40;4.30;;;;;;;6.22;62.00;94571.22;4927325;28;20050;-83
2021/03/06 09:54:17;;;;;;;9.73;6.18;;;;;;;5.81;61.47;94508.72;4936524;28;20317;-83
2021/03/06 09:56:53;;;;;;;6.82;6.03;;;;;;;6.30;60.09;94572.66;4966125;28;20047;-85
2021/03/06 09:59:19;;;;;;;8.52;6.25;;;;;;;5.98;61.37;94518.16;4948574;28;20075;-84
2021/03/06 10:01:45;;;;;;;6.15;5.53;;;;;;;6.36;59.88;94585.59;4947706;28;20501;-83
2021/03/06 10:04:22;;;;;;;7.95;5.97;;;;;;;6.37;61.79;94560.94;4938766;28;20073;-83
2021/03/06 10:06:52;;;;;;;8.95;5.57;;;;;;;6.33;59.82;94557.19;4925779;28;20284;-83
2021/03/06 10:09:22;;;;;;;8.13;6.47;;;;;;;6.24;60.19;94563.91;4902338;28;20549;-83
2021/03/06 10:12:14;;;;;;;6.10;4.65;;;;;;;5.99;59.70;94547.81;4934065;28;20105;-83
2021/03/06 10:14:49;;;;;;;9.13;6.32;;;;;;;5.88;60.28;94530.34;4949995;28;20042;-85
2021/03/06 10:17:24;;;;;;;7.93;6.53;;;;;;;6.12;58.69;94570.28;4938366;28;20127;-83
2021/03/06 10:19:52;;;;;;;10.57;5.90;;;;;;;6.04;58.91;94576.75;4960043;28;20574;-82
2021/03/06 10:22:19;;;;;;;5.50;5.00;;;;;;;5.98;59.16;94594.25;4947990;28;20042;-83
2021/03/06 10:25:03;;;;;;;5.70;5.10;;;;;;;6.09;59.35;94600.44;4942322;28;20061;-83
2021/03/06 10:27:48;;;;;;;7.35;5.30;;;;;;;5.96;59.64;94612.06;4945035;28;20054;-84
2021/03/06 10:30:49;;;;;;;9.60;6.03;;;;;;;5.55;60.45;94568.66;4943905;28;20491;-83
2021/03/06 10:33:24;;;;;;;7.65;5.93;;;;;;;5.70;60.12;94580.41;4938550;28;20051;-84
2021/03/06 10:35:50;;;;;;;8.55;6.43;;;;;;;5.52;60.40;94563.09;4946701;28;20042;-83
2021/03/06 10:38:19;;;;;;;8.48;6.38;;;;;;;5.83;59.99;94601.84;4912908;28;20046;-85
2021/03/06 10:40:57;;;;;;;8.95;6.35;;;;;;;6.03;60.21;94602.19;4922642;28;20027;-82
2021/03/06 10:43:56;;;;;;;10.68;7.65;;;;;;;5.57;59.47;94529.09;4960754;28;20057;-83
2021/03/06 10:46:32;;;;;;;8.73;6.78;;;;;;;6.00;61.05;94573.81;4952214;28;20448;-82
2021/03/06 10:49:01;;;;;;;9.27;7.10;;;;;;;6.12;61.03;94542.22;4925567;28;20055;-83
2021/03/06 10:51:49;;;;;;;8.55;6.70;;;;;;;6.17;58.88;94551.97;4941540;28;20113;-87
2021/03/06 10:54:16;;;;;;;11.55;7.35;;;;;;;6.29;57.73;94581.56;4952389;28;20050;-83
2021/03/06 10:56:42;;;;;;;9.80;7.38;;;;;;;6.36;57.83;94590.84;4954932;28;20046;-87
2021/03/06 10:59:09;;;;;;;7.90;6.50;;;;;;;6.67;57.44;94606.97;4952983;28;20766;-90
2021/03/06 11:01:50;;;;;;;7.18;6.07;;;;;;;6.30;57.89;94534.06;4957014;28;20029;-84
2021/03/06 11:04:28;;;;;;;10.75;7.35;;;;;;;6.70;55.69;94590.72;4946066;28;20505;-84
2021/03/06 11:06:58;;;;;;;11.20;7.72;;;;;;;6.64;56.92;94549.69;4948661;28;20595;-84
2021/03/06 11:09:28;;;;;;;11.63;7.78;;;;;;;6.79;57.64;94560.38;4951967;28;20046;-84
2021/03/06 11:11:55;;;;;;;10.73;7.78;;;;;;;7.20;55.07;94583.41;4941712;28;20046;-84
2021/03/06 11:14:28;;;;;;;10.32;8.52;;;;;;;6.90;55.74;94533.16;4943194;28;20027;-83
2021/03/06 11:16:55;;;;;;;11.10;8.82;;;;;;;7.06;55.00;94526.22;4969265;28;20052;-84
2021/03/06 11:19:24;;;;;;;19.02;13.25;;;;;;;7.34;54.93;94545.16;4969921;28;20457;-83
2021/03/06 11:21:52;;;;;;;12.13;9.43;;;;;;;7.69;55.82;94549.09;4918480;28;20140;-83
2021/03/06 11:24:18;;;;;;;15.32;11.07;;;;;;;7.69;53.79;94520.97;4960644;28;20035;-83
2021/03/06 11:26:44;;;;;;;19.48;12.63;;;;;;;8.07;51.87;94574.38;4949938;28;20142;-83
2021/03/06 11:29:13;;;;;;;35.28;20.58;;;;;;;8.04;51.17;94574.88;4967394;28;20109;-84
2021/03/06 11:31:43;;;;;;;56.85;30.98;;;;;;;8.06;50.58;94541.97;4955797;28;20169;-83
2021/03/06 11:34:14;;;;;;;86.88;40.75;;;;;;;8.26;52.81;94572.91;4968303;28;20101;-88
2021/03/06 11:36:42;;;;;;;31.52;16.48;;;;;;;8.24;49.91;94532.88;4950822;28;20047;-87
2021/03/06 11:39:07;;;;;;;61.95;25.95;;;;;;;8.35;50.49;94528.50;4949596;28;20190;-86
2021/03/06 11:41:33;;;;;;;27.98;17.35;;;;;;;8.31;49.46;94522.16;4957850;28;20133;-83
2021/03/06 11:43:59;;;;;;;16.15;9.85;;;;;;;8.36;49.40;94477.38;4951189;28;20409;-83
2021/03/06 11:46:24;;;;;;;78.32;35.45;;;;;;;9.10;48.62;94534.00;4970703;28;20056;-84
2021/03/06 11:48:49;;;;;;;64.32;26.33;;;;;;;9.10;46.70;94476.00;4966014;28;20140;-83
2021/03/06 11:51:15;;;;;;;59.10;19.92;;;;;;;9.78;47.19;94536.41;4951350;28;20131;-83
2021/03/06 11:53:40;;;;;;;29.13;10.95;;;;;;;9.74;45.00;94499.22;4967605;28;20524;-85
2021/03/06 11:56:06;;;;;;;91.43;41.03;;;;;;;9.82;45.53;94514.50;4969240;28;20455;-85
2021/03/06 11:58:32;;;;;;;95.75;43.53;;;;;;;9.93;44.46;94550.41;4970524;28;20022;-84